Price, Carbon County Regional/Buck Davis Field (KPUC)

NameCarbon County Regional/Buck Davis Field
CityPrice
CountryUnited States
ICAOKPUC
IATA
Altitude1816 m
CoordinatesGoogle Map
Live Air TrafficLiveATC.net
METARKPUC 160553Z AUTO 06006KT 10SM FEW120 18/05 A3014 RMK AO2 SLP124 T01830050 10267 20183 51009
2019-09-16 05:53:00 Wind: Northeast (60°) 3.09 m/s - Visibility: 16093.4 m - Temperature: 18 °C - Dew point: 5 °C - Humidity: 42.5% - Pressure: 1020.66 hPa
Statistics

The table below shows the detailed information of all flights to/from Price, Carbon County Regional/Buck Davis Field (KPUC).